Time;durP1;ratioP1;P1;durP2;ratioP2;P2;SDS_P1;SDS_P2;PMS_P1;PMS_P2;Temp;Humidity;BMP_temperature;BMP_pressure;BME280_temperature;BME280_humidity;BME280_pressure;Samples;Min_cycle;Max_cycle;Signal;HPM_P1;HPM_P2
2021/04/09 00:02:13;;;;;;;4.47;1.70;;;29.00;67.10;;;;;;5023874;28;20032;-68
2021/04/09 00:04:40;;;;;;;2.63;1.92;;;28.30;67.20;;;;;;5020734;28;20014;-68
2021/04/09 00:07:08;;;;;;;2.67;1.52;;;27.70;69.00;;;;;;5021223;28;20027;-67
2021/04/09 00:09:37;;;;;;;2.63;1.50;;;26.90;70.50;;;;;;5026212;28;20483;-69
2021/04/09 00:12:05;;;;;;;4.85;1.63;;;26.30;72.80;;;;;;5027242;28;20037;-69
2021/04/09 00:14:32;;;;;;;3.63;2.08;;;25.90;73.40;;;;;;5023051;28;20393;-68
2021/04/09 00:17:00;;;;;;;3.90;1.60;;;25.60;75.20;;;;;;5025285;28;20448;-68
2021/04/09 00:19:28;;;;;;;2.65;2.00;;;25.20;76.30;;;;;;5021732;28;20055;-67
2021/04/09 00:21:55;;;;;;;2.28;1.30;;;25.00;77.30;;;;;;5026265;28;20053;-68
2021/04/09 00:24:23;;;;;;;6.65;2.75;;;24.80;78.50;;;;;;5026858;28;20600;-68
2021/04/09 00:26:51;;;;;;;2.03;1.77;;;24.70;79.10;;;;;;5022265;28;20048;-67
2021/04/09 00:29:19;;;;;;;24.90;6.30;;;24.70;79.80;;;;;;5023276;28;20029;-69
2021/04/09 00:31:46;;;;;;;4.68;1.85;;;24.70;79.30;;;;;;5024482;28;20711;-67
2021/04/09 00:34:13;;;;;;;3.05;1.73;;;24.70;78.30;;;;;;5023791;28;20071;-68
2021/04/09 00:36:41;;;;;;;5.90;1.67;;;24.70;79.60;;;;;;5029187;28;20037;-68
2021/04/09 00:39:09;;;;;;;4.45;2.15;;;24.50;80.00;;;;;;5018645;28;20033;-69
2021/04/09 00:41:41;;;;;;;2.53;1.92;;;24.40;81.10;;;;;;5022990;28;20029;-68
2021/04/09 00:44:10;;;;;;;2.90;1.80;;;24.30;82.00;;;;;;5026035;28;20140;-69
2021/04/09 00:46:39;;;;;;;3.35;2.10;;;24.20;80.30;;;;;;5025797;28;20026;-69
2021/04/09 00:49:07;;;;;;;3.53;2.10;;;24.30;81.70;;;;;;5025623;28;20056;-69
2021/04/09 00:51:36;;;;;;;3.63;2.05;;;24.30;81.50;;;;;;5021383;28;20028;-68
2021/04/09 00:54:04;;;;;;;6.50;2.42;;;24.50;81.60;;;;;;5024698;28;20037;-69
2021/04/09 00:56:34;;;;;;;3.83;1.98;;;24.60;80.60;;;;;;5013132;28;20037;-69
2021/04/09 00:59:02;;;;;;;5.85;2.03;;;24.80;81.00;;;;;;5020468;28;20017;-70
2021/04/09 01:01:30;;;;;;;4.85;2.08;;;24.90;80.00;;;;;;5026922;28;20120;-68
2021/04/09 01:03:58;;;;;;;4.60;1.80;;;24.90;79.50;;;;;;5019526;28;20110;-67
2021/04/09 01:06:26;;;;;;;5.72;2.25;;;24.80;80.70;;;;;;5025538;28;20030;-69
2021/04/09 01:08:53;;;;;;;4.35;2.00;;;24.70;80.00;;;;;;5025230;28;20110;-68
2021/04/09 01:11:21;;;;;;;4.80;1.90;;;24.70;80.70;;;;;;5024262;28;20036;-69
2021/04/09 01:13:48;;;;;;;3.60;2.45;;;24.70;80.40;;;;;;5023085;28;20545;-67
2021/04/09 01:16:38;;;;;;;4.35;2.45;;;24.60;81.30;;;;;;5026361;28;20048;-68
2021/04/09 01:19:30;;;;;;;4.78;2.20;;;24.50;82.20;;;;;;5020753;28;20045;-69
2021/04/09 01:22:06;;;;;;;4.22;2.45;;;24.50;81.60;;;;;;5029896;28;20028;-67
2021/04/09 01:24:54;;;;;;;3.22;2.05;;;24.40;81.70;;;;;;5025351;28;20487;-69
2021/04/09 01:27:40;;;;;;;3.95;2.45;;;24.30;80.70;;;;;;5017568;28;20075;-68
2021/04/09 01:30:32;;;;;;;4.20;2.40;;;24.30;78.20;;;;;;5021706;28;20029;-68
2021/04/09 01:33:01;;;;;;;18.25;3.42;;;24.30;79.30;;;;;;5027744;28;20036;-68
2021/04/09 01:35:31;;;;;;;7.93;2.67;;;24.10;79.20;;;;;;5027800;28;20109;-69
2021/04/09 01:38:06;;;;;;;6.60;1.98;;;24.00;79.90;;;;;;5030501;28;20040;-69
2021/04/09 01:40:41;;;;;;;2.78;1.77;;;23.90;81.10;;;;;;5019978;28;20395;-68
2021/04/09 01:43:13;;;;;;;2.45;2.10;;;23.80;82.00;;;;;;5025257;28;20124;-67
2021/04/09 01:45:40;;;;;;;4.50;2.25;;;23.70;81.40;;;;;;5023283;28;20593;-67
2021/04/09 01:48:11;;;;;;;4.13;2.35;;;23.70;82.50;;;;;;5022981;28;20042;-68
2021/04/09 01:50:41;;;;;;;4.15;2.28;;;23.60;81.60;;;;;;5023245;28;20032;-67
2021/04/09 01:53:11;;;;;;;2.45;1.85;;;23.50;83.10;;;;;;5030451;28;20021;-69
2021/04/09 01:55:46;;;;;;;2.97;2.00;;;23.50;84.90;;;;;;5023218;28;20038;-68
2021/04/09 01:58:16;;;;;;;3.42;2.20;;;23.50;86.20;;;;;;5027052;28;20128;-68
2021/04/09 02:00:44;;;;;;;3.53;1.83;;;23.40;85.90;;;;;;5019839;28;20087;-69
2021/04/09 02:03:12;;;;;;;4.40;2.25;;;23.40;86.50;;;;;;5026639;28;20083;-70
2021/04/09 02:05:42;;;;;;;3.30;1.60;;;23.50;80.30;;;;;;5027465;28;20045;-70
2021/04/09 02:08:13;;;;;;;3.92;1.75;;;23.60;81.40;;;;;;5033797;28;21237;-68
2021/04/09 02:10:40;;;;;;;2.97;2.03;;;23.50;83.40;;;;;;5028774;28;20381;-67
2021/04/09 02:13:09;;;;;;;8.43;2.00;;;23.50;83.70;;;;;;5026908;28;20088;-67
2021/04/09 02:15:37;;;;;;;2.70;2.40;;;23.50;84.10;;;;;;5022704;28;20032;-68
2021/04/09 02:18:06;;;;;;;2.83;1.90;;;23.60;84.50;;;;;;5023043;28;20030;-67
2021/04/09 02:20:35;;;;;;;5.13;2.47;;;23.70;84.00;;;;;;5030108;28;20039;-68
2021/04/09 02:23:02;;;;;;;3.72;2.15;;;23.80;82.70;;;;;;5027816;28;20026;-68
2021/04/09 02:25:30;;;;;;;4.07;2.20;;;24.00;81.70;;;;;;5022601;28;20029;-68
2021/04/09 02:27:57;;;;;;;5.10;1.70;;;24.10;81.70;;;;;;5023158;28;20535;-68
2021/04/09 02:30:25;;;;;;;3.58;1.75;;;24.30;81.00;;;;;;5028284;28;20773;-68
2021/04/09 02:32:52;;;;;;;6.38;2.30;;;24.40;80.40;;;;;;5032454;28;20044;-67
2021/04/09 02:35:22;;;;;;;4.57;2.33;;;24.50;80.10;;;;;;5024276;28;20459;-68
2021/04/09 02:37:51;;;;;;;5.10;1.88;;;24.60;80.10;;;;;;5034256;28;20029;-68
2021/04/09 02:40:27;;;;;;;4.78;2.03;;;24.70;79.40;;;;;;5031626;28;20083;-68
2021/04/09 02:42:55;;;;;;;4.80;2.45;;;24.70;78.80;;;;;;5030210;28;20482;-69
2021/04/09 02:45:25;;;;;;;4.20;2.13;;;24.70;79.10;;;;;;5029025;28;20051;-69
2021/04/09 02:47:56;;;;;;;2.65;2.20;;;24.70;79.30;;;;;;5028690;28;20030;-69
2021/04/09 02:50:31;;;;;;;4.22;2.70;;;24.80;77.70;;;;;;5026770;28;20076;-70
2021/04/09 02:53:21;;;;;;;4.10;2.30;;;24.80;78.10;;;;;;5025324;28;20473;-69
2021/04/09 02:55:49;;;;;;;4.95;2.30;;;25.00;79.40;;;;;;5022266;28;20290;-69
2021/04/09 02:58:18;;;;;;;4.53;2.15;;;25.00;77.20;;;;;;5033865;28;20042;-69
2021/04/09 03:00:48;;;;;;;4.22;2.28;;;25.20;77.10;;;;;;5027979;28;20048;-72
2021/04/09 03:03:17;;;;;;;3.80;1.63;;;25.30;74.40;;;;;;5033907;28;20111;-70
2021/04/09 03:05:48;;;;;;;3.83;1.55;;;25.50;76.10;;;;;;5030990;28;20066;-69
2021/04/09 03:08:18;;;;;;;4.38;1.75;;;25.90;74.60;;;;;;5029907;28;21712;-70
2021/04/09 03:10:45;;;;;;;4.30;2.40;;;26.90;75.70;;;;;;5024731;28;20047;-70
2021/04/09 03:13:13;;;;;;;7.25;2.90;;;27.50;71.90;;;;;;5032760;28;20083;-70
2021/04/09 03:16:07;;;;;;;3.58;2.05;;;28.30;69.90;;;;;;5031373;28;20044;-70
2021/04/09 03:18:39;;;;;;;4.32;1.95;;;29.10;66.40;;;;;;5027679;28;20064;-69
2021/04/09 03:21:06;;;;;;;2.08;1.65;;;29.10;62.40;;;;;;5023975;28;20033;-69
2021/04/09 03:23:34;;;;;;;4.85;1.67;;;29.00;62.90;;;;;;5026889;28;20033;-69
2021/04/09 03:26:01;;;;;;;3.95;1.48;;;29.40;62.20;;;;;;5029596;28;20033;-70
2021/04/09 03:28:29;;;;;;;4.60;1.50;;;29.90;61.40;;;;;;5024253;28;20133;-69
2021/04/09 03:30:56;;;;;;;3.13;1.52;;;30.20;60.60;;;;;;5023913;28;20107;-68
2021/04/09 03:33:24;;;;;;;3.58;2.00;;;30.40;61.30;;;;;;5029945;28;20051;-69
2021/04/09 03:35:52;;;;;;;3.10;1.80;;;30.40;59.20;;;;;;5026780;28;20136;-69
2021/04/09 03:38:20;;;;;;;3.47;1.77;;;30.60;59.90;;;;;;5017519;28;20167;-69
2021/04/09 03:40:47;;;;;;;3.30;1.75;;;30.40;57.80;;;;;;5025877;28;20036;-69
2021/04/09 03:43:15;;;;;;;3.97;1.60;;;30.30;57.90;;;;;;5022418;28;20057;-69
2021/04/09 03:45:43;;;;;;;4.55;1.38;;;30.30;56.80;;;;;;5025175;28;20036;-69
2021/04/09 03:48:10;;;;;;;2.78;1.95;;;30.30;59.50;;;;;;5024669;28;20068;-70
2021/04/09 03:50:38;;;;;;;4.68;1.75;;;30.50;58.00;;;;;;5027909;28;20542;-70
2021/04/09 03:53:07;;;;;;;4.25;1.77;;;30.70;60.80;;;;;;5024270;28;20038;-69
2021/04/09 03:55:35;;;;;;;2.45;1.83;;;30.90;58.10;;;;;;5024219;28;20038;-69
2021/04/09 03:58:02;;;;;;;3.17;1.70;;;30.50;58.50;;;;;;5026126;28;20036;-69
2021/04/09 04:00:29;;;;;;;3.22;1.48;;;30.60;58.50;;;;;;5024481;28;20107;-69
2021/04/09 04:02:57;;;;;;;2.88;1.42;;;30.40;59.00;;;;;;5027201;28;20480;-69
2021/04/09 04:05:25;;;;;;;2.83;1.38;;;30.20;58.20;;;;;;5022167;28;20425;-68
2021/04/09 04:07:53;;;;;;;3.58;1.80;;;30.30;56.90;;;;;;5033180;28;20018;-70
2021/04/09 04:10:20;;;;;;;4.30;1.70;;;30.10;55.50;;;;;;5024993;28;20025;-71
2021/04/09 04:12:48;;;;;;;2.45;1.42;;;30.30;56.30;;;;;;5022839;28;20022;-70
2021/04/09 04:15:15;;;;;;;4.03;1.33;;;30.20;57.40;;;;;;5025265;28;20750;-70
2021/04/09 04:17:43;;;;;;;2.63;1.35;;;30.20;57.60;;;;;;5025316;28;20053;-69
2021/04/09 04:20:11;;;;;;;5.93;1.55;;;30.30;55.30;;;;;;5026764;28;20098;-70
2021/04/09 04:22:38;;;;;;;4.32;1.88;;;30.10;56.40;;;;;;5028638;28;20028;-69
2021/04/09 04:25:07;;;;;;;2.08;1.48;;;30.00;57.90;;;;;;5022223;28;20037;-70
2021/04/09 04:27:34;;;;;;;1.55;1.35;;;29.90;57.90;;;;;;5021425;28;20036;-68
2021/04/09 04:30:02;;;;;;;2.58;1.35;;;30.10;58.80;;;;;;5023213;28;20061;-68
2021/04/09 04:32:30;;;;;;;2.00;1.40;;;30.00;58.30;;;;;;5030466;28;20614;-69
2021/04/09 04:34:58;;;;;;;2.90;1.70;;;29.90;57.90;;;;;;5025076;28;20041;-70
2021/04/09 04:37:25;;;;;;;2.03;1.80;;;30.00;59.30;;;;;;5022209;28;20124;-69
2021/04/09 04:39:53;;;;;;;3.85;1.52;;;29.90;57.50;;;;;;5019539;28;20159;-68
2021/04/09 04:42:20;;;;;;;7.55;1.85;;;29.80;57.90;;;;;;5023270;28;20083;-70
2021/04/09 04:44:50;;;;;;;3.35;1.55;;;29.60;57.80;;;;;;5021611;28;20033;-68
2021/04/09 04:47:18;;;;;;;3.75;1.85;;;29.50;57.90;;;;;;5023775;28;20106;-67
2021/04/09 04:49:45;;;;;;;3.83;1.40;;;29.40;57.90;;;;;;5027846;28;20435;-69
2021/04/09 04:52:13;;;;;;;3.95;1.70;;;29.30;58.80;;;;;;5028143;28;20073;-68
2021/04/09 04:54:40;;;;;;;3.08;1.65;;;29.30;57.90;;;;;;5026342;28;20022;-69
2021/04/09 04:57:09;;;;;;;3.20;2.00;;;29.20;58.50;;;;;;5024748;28;20037;-69
2021/04/09 04:59:36;;;;;;;2.53;1.70;;;29.20;59.10;;;;;;5026880;28;20013;-69
2021/04/09 05:02:04;;;;;;;2.40;1.83;;;29.30;59.40;;;;;;5022685;28;20104;-69
2021/04/09 05:04:35;;;;;;;1.63;1.35;;;29.20;58.60;;;;;;5024296;28;20033;-69
2021/04/09 05:07:02;;;;;;;2.67;1.10;;;29.10;58.70;;;;;;5022560;28;20335;-69
2021/04/09 05:09:30;;;;;;;4.40;1.67;;;29.20;60.00;;;;;;5020917;28;20029;-71
2021/04/09 05:11:57;;;;;;;3.05;1.48;;;29.20;58.50;;;;;;5027056;28;20037;-70
2021/04/09 05:14:25;;;;;;;4.28;1.98;;;29.10;57.60;;;;;;5028636;28;20093;-68
2021/04/09 05:16:52;;;;;;;2.95;1.48;;;29.20;58.50;;;;;;5029471;28;20033;-69
2021/04/09 05:19:20;;;;;;;3.00;1.45;;;29.10;57.80;;;;;;5021056;28;20025;-69
2021/04/09 05:21:47;;;;;;;2.90;1.52;;;29.10;58.30;;;;;;5023730;28;21956;-68
2021/04/09 05:24:14;;;;;;;2.95;1.40;;;29.20;57.20;;;;;;5025464;28;20029;-68
2021/04/09 05:26:42;;;;;;;3.00;1.27;;;29.30;57.40;;;;;;5026636;28;21377;-69
2021/04/09 05:29:09;;;;;;;4.32;1.30;;;29.30;58.30;;;;;;5027163;28;20333;-69
2021/04/09 05:31:38;;;;;;;3.10;2.15;;;29.30;58.50;;;;;;5028461;28;20117;-69
2021/04/09 05:34:05;;;;;;;1.65;1.33;;;29.10;56.00;;;;;;5029773;28;20439;-69
2021/04/09 05:36:33;;;;;;;4.80;2.03;;;29.20;56.30;;;;;;5027223;28;20452;-68
2021/04/09 05:39:00;;;;;;;3.90;1.40;;;29.20;56.70;;;;;;5024182;28;20029;-67
2021/04/09 05:41:27;;;;;;;3.20;2.03;;;29.20;56.40;;;;;;5032529;28;20364;-69
2021/04/09 05:43:55;;;;;;;1.77;1.20;;;29.10;57.60;;;;;;5026422;28;20036;-70
2021/04/09 05:46:22;;;;;;;3.67;1.35;;;29.00;58.30;;;;;;5030360;28;20064;-70
2021/04/09 05:48:49;;;;;;;4.15;1.70;;;29.10;56.90;;;;;;5021847;28;20045;-69
2021/04/09 05:51:17;;;;;;;4.20;1.40;;;29.20;58.00;;;;;;5024201;28;20109;-70
2021/04/09 05:53:45;;;;;;;4.05;1.40;;;29.30;53.70;;;;;;5031396;28;20556;-69
2021/04/09 05:56:13;;;;;;;5.90;1.55;;;29.40;53.00;;;;;;5023987;28;20515;-69
2021/04/09 05:58:40;;;;;;;4.03;1.40;;;29.40;53.50;;;;;;5029557;28;20032;-68
2021/04/09 06:01:08;;;;;;;2.95;1.45;;;29.30;53.00;;;;;;5029421;28;20021;-69
2021/04/09 06:03:35;;;;;;;3.97;1.50;;;29.40;50.50;;;;;;5028862;28;20021;-68
2021/04/09 06:06:02;;;;;;;2.15;1.40;;;29.40;50.80;;;;;;5031808;28;20049;-70
2021/04/09 06:08:30;;;;;;;1.70;1.00;;;29.30;49.20;;;;;;5031607;28;20029;-68
2021/04/09 06:10:57;;;;;;;2.83;1.35;;;29.30;50.10;;;;;;5025087;28;20518;-70
2021/04/09 06:13:25;;;;;;;3.95;1.60;;;29.30;49.90;;;;;;5028415;28;20040;-69
2021/04/09 06:15:52;;;;;;;5.15;1.50;;;29.30;49.70;;;;;;5024244;28;20057;-70
2021/04/09 06:18:19;;;;;;;3.67;0.98;;;29.30;50.60;;;;;;5030805;28;20053;-70
2021/04/09 06:20:47;;;;;;;2.83;1.23;;;29.40;50.10;;;;;;5025573;28;20040;-70
2021/04/09 06:23:15;;;;;;;2.53;1.42;;;29.40;50.10;;;;;;5028691;28;20025;-71
2021/04/09 06:25:43;;;;;;;1.92;1.02;;;29.40;51.10;;;;;;5024632;28;20045;-70
2021/04/09 06:28:10;;;;;;;2.92;1.50;;;29.40;49.70;;;;;;5027368;28;20028;-69
2021/04/09 06:30:37;;;;;;;5.47;2.15;;;29.40;48.40;;;;;;5029433;28;20049;-70
2021/04/09 06:33:05;;;;;;;5.00;2.72;;;29.50;50.10;;;;;;5027543;28;20033;-69
2021/04/09 06:35:33;;;;;;;4.22;1.15;;;29.50;48.80;;;;;;5023844;28;20029;-69
2021/04/09 06:38:00;;;;;;;3.92;1.95;;;29.50;45.60;;;;;;5026391;28;20037;-69
2021/04/09 06:40:28;;;;;;;2.47;1.67;;;29.40;45.20;;;;;;5022387;28;20037;-69
2021/04/09 06:43:00;;;;;;;6.40;1.67;;;29.30;46.50;;;;;;5031270;28;20382;-71
2021/04/09 06:45:28;;;;;;;4.63;2.90;;;29.30;47.60;;;;;;5030132;28;20057;-70
2021/04/09 06:47:57;;;;;;;6.25;2.70;;;29.10;48.70;;;;;;5028939;28;20024;-72
2021/04/09 06:50:24;;;;;;;4.32;2.00;;;29.00;51.10;;;;;;5024989;28;20037;-70
2021/04/09 06:52:55;;;;;;;5.00;2.10;;;28.90;52.50;;;;;;5027155;28;20032;-70
2021/04/09 06:55:23;;;;;;;5.07;1.95;;;28.70;52.50;;;;;;5028955;28;20033;-69
2021/04/09 06:57:56;;;;;;;5.82;1.95;;;28.60;53.00;;;;;;5031500;28;20032;-70
2021/04/09 07:00:28;;;;;;;7.15;3.10;;;28.50;53.00;;;;;;5032131;28;20029;-69
2021/04/09 07:02:55;;;;;;;2.58;1.10;;;28.40;54.10;;;;;;5029367;28;20025;-71
2021/04/09 07:05:26;;;;;;;4.47;2.28;;;28.30;49.70;;;;;;5025443;28;20099;-70
2021/04/09 07:07:54;;;;;;;4.95;2.60;;;28.30;51.50;;;;;;5025049;28;20033;-71
2021/04/09 07:10:22;;;;;;;6.15;2.20;;;28.30;54.00;;;;;;5027821;28;20164;-72
2021/04/09 07:13:11;;;;;;;4.03;1.50;;;28.10;53.60;;;;;;5029546;28;20403;-70
2021/04/09 07:15:46;;;;;;;6.53;2.80;;;27.90;54.40;;;;;;5026635;28;20037;-71
2021/04/09 07:18:17;;;;;;;2.30;1.73;;;27.80;54.40;;;;;;5026349;28;20603;-70
2021/04/09 07:20:45;;;;;;;4.20;2.15;;;27.60;54.10;;;;;;5019473;28;20450;-71
2021/04/09 07:23:13;;;;;;;3.92;1.40;;;27.40;54.50;;;;;;5027768;28;20849;-68
2021/04/09 07:25:45;;;;;;;3.13;1.48;;;27.20;55.10;;;;;;5024149;28;20029;-71
2021/04/09 07:28:15;;;;;;;4.85;2.10;;;27.10;55.40;;;;;;5020524;28;20053;-69
2021/04/09 07:30:51;;;;;;;9.35;2.25;;;26.90;55.00;;;;;;5021896;28;20091;-68
2021/04/09 07:33:23;;;;;;;3.88;2.00;;;26.90;53.20;;;;;;5029870;28;20148;-70
2021/04/09 07:35:57;;;;;;;2.67;2.20;;;26.70;54.20;;;;;;5021276;28;20488;-68
2021/04/09 07:38:28;;;;;;;5.72;2.70;;;26.60;55.40;;;;;;5029596;28;20025;-69
2021/04/09 07:41:08;;;;;;;5.55;1.95;;;26.50;55.10;;;;;;5025038;28;20539;-68
2021/04/09 07:43:40;;;;;;;6.05;1.80;;;26.40;54.70;;;;;;5022800;28;20102;-70
2021/04/09 07:46:19;;;;;;;3.47;1.48;;;26.30;53.80;;;;;;5025729;28;20044;-71
2021/04/09 07:48:49;;;;;;;5.60;1.85;;;26.20;51.30;;;;;;5029645;28;20053;-70
2021/04/09 07:51:20;;;;;;;3.28;1.67;;;26.10;51.90;;;;;;5027296;28;20033;-69
2021/04/09 07:53:48;;;;;;;2.97;1.73;;;26.00;50.70;;;;;;5032880;28;20021;-70
2021/04/09 07:56:18;;;;;;;7.80;2.35;;;25.90;51.10;;;;;;5022833;28;20488;-68
2021/04/09 07:58:46;;;;;;;8.65;2.53;;;25.80;51.80;;;;;;5029593;28;20029;-72
2021/04/09 08:01:20;;;;;;;6.00;1.50;;;25.80;51.20;;;;;;5027454;28;20126;-68
2021/04/09 08:03:48;;;;;;;4.18;1.58;;;25.60;50.20;;;;;;5028379;28;20021;-69
2021/04/09 08:06:21;;;;;;;4.15;1.55;;;25.60;52.30;;;;;;5025222;28;20017;-69
2021/04/09 08:08:48;;;;;;;5.63;1.88;;;25.50;52.00;;;;;;5034556;28;20506;-70
2021/04/09 08:11:20;;;;;;;5.05;1.65;;;25.40;53.50;;;;;;5023746;28;20049;-68
2021/04/09 08:14:10;;;;;;;2.90;1.70;;;25.30;52.00;;;;;;5029769;28;20024;-71
2021/04/09 08:16:44;;;;;;;8.10;2.38;;;25.10;53.40;;;;;;5023428;28;20550;-69
2021/04/09 08:19:16;;;;;;;7.13;3.67;;;25.10;55.40;;;;;;5023410;28;20025;-71
2021/04/09 08:21:51;;;;;;;14.15;4.55;;;25.20;54.50;;;;;;5026026;28;20037;-68
2021/04/09 08:24:20;;;;;;;15.57;4.53;;;25.00;67.00;;;;;;5025239;28;20025;-68
2021/04/09 08:26:51;;;;;;;14.18;5.78;;;24.60;73.40;;;;;;5031254;28;20119;-68
2021/04/09 08:29:21;;;;;;;15.10;4.45;;;24.30;76.90;;;;;;5027005;28;20900;-68
2021/04/09 08:31:48;;;;;;;23.40;6.75;;;24.20;78.20;;;;;;5027894;28;20099;-68
2021/04/09 08:34:19;;;;;;;16.73;5.55;;;24.10;79.70;;;;;;5025169;28;20026;-69
2021/04/09 08:36:48;;;;;;;16.77;5.53;;;24.10;81.20;;;;;;5023210;28;20037;-69
2021/04/09 08:39:17;;;;;;;20.92;5.68;;;23.90;83.10;;;;;;5019896;28;20040;-69
2021/04/09 08:41:48;;;;;;;16.25;6.47;;;23.80;84.30;;;;;;5027296;28;20337;-69
2021/04/09 08:44:16;;;;;;;22.80;7.18;;;23.60;85.50;;;;;;5027341;28;20705;-68
2021/04/09 08:46:45;;;;;;;19.80;5.88;;;23.40;87.50;;;;;;5026677;28;20048;-68
2021/04/09 08:49:16;;;;;;;20.40;5.68;;;23.20;88.60;;;;;;5030416;28;20068;-69
2021/04/09 08:51:44;;;;;;;27.50;6.68;;;23.00;89.70;;;;;;5029228;28;20148;-70
2021/04/09 08:54:31;;;;;;;32.25;5.88;;;22.90;90.10;;;;;;5021843;28;20025;-69
2021/04/09 08:57:03;;;;;;;20.40;6.30;;;22.80;90.40;;;;;;5024362;28;21210;-68
2021/04/09 08:59:44;;;;;;;21.27;6.55;;;22.80;90.50;;;;;;5025072;28;20030;-68
2021/04/09 09:02:22;;;;;;;21.88;6.55;;;22.80;90.50;;;;;;5022446;28;20386;-68
2021/04/09 09:05:13;;;;;;;21.77;7.85;;;22.80;90.50;;;;;;5024137;28;20026;-68
2021/04/09 09:07:53;;;;;;;20.88;6.13;;;22.80;90.80;;;;;;5027596;28;20052;-68
2021/04/09 09:10:23;;;;;;;18.60;6.03;;;22.70;90.80;;;;;;5016004;28;20065;-69
2021/04/09 09:13:06;;;;;;;19.50;6.95;;;22.60;91.10;;;;;;5023989;28;20033;-70
2021/04/09 09:15:43;;;;;;;23.65;7.15;;;22.50;91.10;;;;;;5020991;28;20037;-68
2021/04/09 09:18:25;;;;;;;18.02;5.75;;;22.50;91.10;;;;;;5028996;28;20052;-68
2021/04/09 09:21:05;;;;;;;24.60;6.57;;;22.40;91.20;;;;;;5026563;28;20541;-68
2021/04/09 09:23:54;;;;;;;19.27;5.20;;;22.50;91.30;;;;;;5020631;28;20785;-67
2021/04/09 09:26:48;;;;;;;27.45;6.97;;;22.50;91.20;;;;;;5023793;28;20030;-68
2021/04/09 09:29:26;;;;;;;21.60;5.93;;;22.40;91.10;;;;;;5015440;28;20038;-69
2021/04/09 09:32:07;;;;;;;23.17;5.72;;;22.30;91.20;;;;;;5019360;28;20029;-68
2021/04/09 09:34:36;;;;;;;21.98;6.32;;;22.30;91.30;;;;;;5022064;28;20053;-67
2021/04/09 09:37:12;;;;;;;17.00;4.72;;;22.30;91.20;;;;;;5028020;28;20825;-68
2021/04/09 09:39:40;;;;;;;17.08;5.88;;;22.30;91.20;;;;;;5027493;28;20109;-67
2021/04/09 09:42:12;;;;;;;15.88;4.63;;;22.30;91.20;;;;;;5025096;28;20037;-68
2021/04/09 09:44:40;;;;;;;15.93;5.70;;;22.20;91.40;;;;;;5026714;28;20523;-68
2021/04/09 09:47:14;;;;;;;17.02;4.95;;;22.10;91.40;;;;;;5026215;28;20498;-67
2021/04/09 09:50:04;;;;;;;16.55;5.85;;;22.10;91.50;;;;;;5020640;28;20653;-68
2021/04/09 09:53:05;;;;;;;17.52;4.78;;;22.10;91.30;;;;;;5028520;28;20100;-69
2021/04/09 09:55:38;;;;;;;19.92;5.10;;;22.10;91.30;;;;;;5023618;28;20387;-70
2021/04/09 09:58:14;;;;;;;20.77;5.15;;;22.00;91.30;;;;;;5023800;28;20116;-70
2021/04/09 10:00:55;;;;;;;19.05;5.45;;;21.90;91.40;;;;;;5025360;28;20059;-69
2021/04/09 10:03:29;;;;;;;14.80;4.68;;;21.80;91.70;;;;;;5026880;28;20079;-67
2021/04/09 10:06:02;;;;;;;21.30;5.40;;;21.70;91.90;;;;;;5027112;28;20040;-69
2021/04/09 10:08:35;;;;;;;24.92;5.18;;;21.70;91.90;;;;;;5025347;28;20356;-70
2021/04/09 10:11:08;;;;;;;27.67;5.13;;;21.70;92.00;;;;;;5022600;28;20034;-68
2021/04/09 10:13:40;;;;;;;16.35;5.38;;;21.60;91.90;;;;;;5024060;28;20356;-70
2021/04/09 10:16:22;;;;;;;29.70;4.75;;;21.60;91.90;;;;;;5025829;28;20445;-69
2021/04/09 10:18:53;;;;;;;19.67;4.78;;;21.60;92.00;;;;;;5026102;28;20021;-69
2021/04/09 10:21:25;;;;;;;25.10;5.82;;;21.70;91.90;;;;;;5023148;28;20109;-70
2021/04/09 10:24:08;;;;;;;22.25;5.38;;;21.70;91.80;;;;;;5022684;28;20435;-69
2021/04/09 10:26:37;;;;;;;13.93;5.70;;;21.70;92.10;;;;;;5029752;28;20025;-68
2021/04/09 10:29:26;;;;;;;21.73;5.53;;;21.70;92.10;;;;;;5031808;28;20132;-70
2021/04/09 10:31:55;;;;;;;23.05;5.82;;;21.70;91.90;;;;;;5024346;28;20030;-68
2021/04/09 10:34:27;;;;;;;19.73;6.32;;;21.70;91.90;;;;;;5026577;28;20045;-70
2021/04/09 10:36:56;;;;;;;16.35;4.25;;;21.80;91.90;;;;;;5029736;28;20116;-69
2021/04/09 10:39:25;;;;;;;20.85;5.50;;;21.70;91.90;;;;;;5025773;28;20037;-69
2021/04/09 10:41:54;;;;;;;113.28;45.58;;;21.80;91.80;;;;;;5029972;28;20033;-70
2021/04/09 10:44:32;;;;;;;59.05;22.83;;;21.80;91.80;;;;;;5024061;28;20018;-68
2021/04/09 10:47:01;;;;;;;26.48;8.07;;;21.70;91.90;;;;;;5029627;28;20044;-70
2021/04/09 10:49:37;;;;;;;22.20;7.10;;;21.80;91.90;;;;;;5023757;28;20045;-69
2021/04/09 10:52:20;;;;;;;17.58;5.80;;;21.80;91.90;;;;;;5030098;28;20029;-69
2021/04/09 10:54:49;;;;;;;17.40;5.22;;;21.80;91.80;;;;;;5027263;28;20024;-70
2021/04/09 10:57:18;;;;;;;22.63;5.78;;;21.80;91.70;;;;;;5024191;28;20042;-71
2021/04/09 10:59:52;;;;;;;23.73;7.22;;;21.80;91.90;;;;;;5028083;28;20057;-71
2021/04/09 11:02:26;;;;;;;23.95;6.32;;;21.70;91.90;;;;;;5031329;28;20494;-71
2021/04/09 11:04:59;;;;;;;20.80;4.78;;;21.60;91.80;;;;;;5027404;28;20041;-70
2021/04/09 11:07:45;;;;;;;18.25;6.40;;;21.70;91.50;;;;;;5033355;28;20033;-70
2021/04/09 11:10:29;;;;;;;152.80;98.70;;;21.60;91.40;;;;;;5027174;28;20057;-70
2021/04/09 11:12:57;;;;;;;276.42;155.32;;;21.60;91.70;;;;;;5030335;28;20028;-70
2021/04/09 11:15:24;;;;;;;348.42;218.63;;;21.50;91.40;;;;;;5028732;28;20034;-71
2021/04/09 11:18:01;;;;;;;156.55;75.60;;;21.50;91.50;;;;;;5027633;28;20037;-71
2021/04/09 11:20:34;;;;;;;179.85;83.85;;;21.40;91.60;;;;;;5031560;28;20350;-70
2021/04/09 11:23:07;;;;;;;33.30;10.93;;;21.40;91.70;;;;;;5022414;28;20041;-71
2021/04/09 11:25:40;;;;;;;22.70;8.82;;;21.30;91.80;;;;;;5024372;28;20053;-70
2021/04/09 11:28:21;;;;;;;27.27;5.28;;;21.20;92.00;;;;;;5030910;28;20407;-70
2021/04/09 11:31:00;;;;;;;27.95;6.53;;;21.20;91.90;;;;;;5020731;28;20022;-70
2021/04/09 11:33:35;;;;;;;20.25;5.25;;;21.20;92.10;;;;;;5026694;28;20112;-70
2021/04/09 11:36:19;;;;;;;19.87;5.97;;;21.20;92.00;;;;;;5029025;28;20134;-70
2021/04/09 11:38:47;;;;;;;20.95;5.38;;;21.20;92.10;;;;;;5026257;28;20469;-71
2021/04/09 11:41:32;;;;;;;19.17;4.82;;;21.10;92.20;;;;;;5025410;28;20033;-71
2021/04/09 11:44:01;;;;;;;18.38;4.68;;;21.20;92.10;;;;;;5025256;28;20460;-71
2021/04/09 11:46:35;;;;;;;17.70;4.25;;;21.10;92.10;;;;;;5029947;28;20030;-70
2021/04/09 11:49:05;;;;;;;23.87;5.63;;;21.10;92.20;;;;;;5026885;28;20107;-69
2021/04/09 11:51:36;;;;;;;18.83;4.38;;;21.00;92.30;;;;;;5030430;28;20490;-70
2021/04/09 11:54:05;;;;;;;21.48;4.90;;;21.00;92.30;;;;;;5028759;28;20029;-70
2021/04/09 11:56:42;;;;;;;19.17;4.25;;;21.00;92.40;;;;;;5031307;28;20065;-70
2021/04/09 11:59:14;;;;;;;18.33;6.65;;;20.90;92.50;;;;;;5026299;28;20042;-70
2021/04/09 12:01:43;;;;;;;20.23;7.45;;;20.90;92.60;;;;;;5026850;28;20087;-70
2021/04/09 12:04:42;;;;;;;29.15;16.20;;;20.90;92.60;;;;;;5027400;28;20025;-70
2021/04/09 12:07:35;;;;;;;40.92;24.52;;;20.80;92.50;;;;;;5017871;28;20049;-70
2021/04/09 12:10:03;;;;;;;31.95;14.60;;;20.70;92.60;;;;;;5021208;28;20042;-71
2021/04/09 12:12:30;;;;;;;22.85;11.10;;;20.70;92.80;;;;;;5023430;28;20021;-71
2021/04/09 12:14:58;;;;;;;15.65;5.25;;;20.70;92.80;;;;;;5027825;28;20531;-70
2021/04/09 12:17:26;;;;;;;17.98;7.40;;;20.60;92.90;;;;;;5019747;28;20037;-70
2021/04/09 12:19:55;;;;;;;13.43;4.80;;;20.60;92.90;;;;;;5020863;28;20022;-71
2021/04/09 12:22:23;;;;;;;16.00;3.28;;;20.60;93.10;;;;;;5024020;28;20133;-71
2021/04/09 12:24:51;;;;;;;27.20;5.03;;;20.60;93.00;;;;;;5023757;28;20498;-70
2021/04/09 12:27:19;;;;;;;11.43;3.10;;;20.50;93.10;;;;;;5021817;28;20125;-70
2021/04/09 12:29:48;;;;;;;15.15;3.67;;;20.40;93.10;;;;;;5022829;28;20425;-71
2021/04/09 12:32:15;;;;;;;17.92;3.92;;;20.40;93.30;;;;;;5024492;28;20105;-70
2021/04/09 12:34:42;;;;;;;18.48;5.13;;;20.20;93.50;;;;;;5024071;28;20076;-70
2021/04/09 12:37:10;;;;;;;19.50;5.00;;;20.20;93.50;;;;;;5024587;28;20068;-71
2021/04/09 12:39:37;;;;;;;18.13;4.45;;;20.20;93.60;;;;;;5019743;28;20033;-71
2021/04/09 12:42:05;;;;;;;20.13;3.97;;;20.20;93.60;;;;;;5024604;28;20468;-71
2021/04/09 12:44:33;;;;;;;19.23;4.25;;;20.10;93.70;;;;;;5026655;28;20133;-71
2021/04/09 12:47:00;;;;;;;17.15;4.45;;;20.10;93.90;;;;;;5022340;28;20032;-71
2021/04/09 12:49:27;;;;;;;17.52;4.88;;;20.10;93.80;;;;;;5020999;28;20057;-70
2021/04/09 12:51:55;;;;;;;27.00;5.68;;;20.00;93.90;;;;;;5021670;28;22313;-70
2021/04/09 12:54:23;;;;;;;11.02;4.00;;;19.90;93.90;;;;;;5023767;28;20236;-70
2021/04/09 12:56:50;;;;;;;13.07;4.25;;;19.90;93.80;;;;;;5022811;28;20161;-71
2021/04/09 12:59:18;;;;;;;13.93;4.78;;;19.90;94.30;;;;;;5024603;28;20036;-71
2021/04/09 13:01:46;;;;;;;13.05;3.90;;;19.90;94.10;;;;;;5025159;28;20112;-71
2021/04/09 13:04:13;;;;;;;18.80;4.40;;;19.80;94.10;;;;;;5027360;28;20103;-71